Time;durP1;ratioP1;P1;durP2;ratioP2;P2;SDS_P1;SDS_P2;PMS_P1;PMS_P2;Temp;Humidity;BMP_temperature;BMP_pressure;BME280_temperature;BME280_humidity;BME280_pressure;Samples;Min_cycle;Max_cycle;Signal;HPM_P1;HPM_P2
2023/09/12 00:00:53;;;;;;;;;13.67;11.67;;;;;23.28;59.92;100577.09;6180927;23;45163;-85
2023/09/12 00:03:20;;;;;;;;;5.00;5.00;;;;;23.31;59.54;100579.50;6182575;23;49443;-85
2023/09/12 00:05:56;;;;;;;;;8.00;6.33;;;;;23.24;59.59;100583.91;6183654;22;45355;-84
2023/09/12 00:08:22;;;;;;;;;10.67;10.33;;;;;23.30;59.82;100594.06;6183835;22;45353;-84
2023/09/12 00:10:57;;;;;;;;;5.25;4.00;;;;;23.14;60.18;100566.91;6183919;23;45512;-85
2023/09/12 00:13:22;;;;;;;;;7.67;6.67;;;;;22.92;60.04;100544.88;6183365;22;45249;-86
2023/09/12 00:15:48;;;;;;;;;5.00;5.00;;;;;23.25;60.61;100591.00;6183658;22;45337;-85
2023/09/12 00:18:13;;;;;;;;;5.25;5.25;;;;;23.19;60.48;100597.13;6182733;23;65451;-83
2023/09/12 00:20:38;;;;;;;;;6.00;6.00;;;;;23.10;61.08;100587.28;6182698;23;60180;-84
2023/09/12 00:23:05;;;;;;;;;4.25;4.25;;;;;23.08;60.63;100589.31;6183183;23;45468;-84
2023/09/12 00:25:30;;;;;;;;;7.00;7.00;;;;;23.07;60.99;100598.47;6181839;23;48159;-84
2023/09/12 00:27:55;;;;;;;;;6.33;6.00;;;;;23.07;61.13;100593.03;6183387;22;45280;-84
2023/09/12 00:30:20;;;;;;;;;5.00;5.00;;;;;22.92;61.06;100565.72;6183605;22;45160;-84
2023/09/12 00:32:46;;;;;;;;;7.00;5.33;;;;;23.05;60.96;100593.22;6183979;23;45257;-84
2023/09/12 00:35:11;;;;;;;;;7.67;7.00;;;;;22.99;60.99;100584.88;6183688;22;45236;-83
2023/09/12 00:37:37;;;;;;;;;8.00;6.33;;;;;22.99;61.26;100585.72;6183700;23;45201;-82
2023/09/12 00:40:03;;;;;;;;;6.33;5.00;;;;;23.01;61.32;100599.97;6183681;22;45201;-83
2023/09/12 00:42:28;;;;;;;;;7.33;5.00;;;;;22.88;61.75;100586.88;6183791;22;45182;-84
2023/09/12 00:44:53;;;;;;;;;6.33;6.33;;;;;22.81;62.01;100569.56;6183822;23;50218;-84
2023/09/12 00:47:20;;;;;;;;;6.00;4.33;;;;;22.73;61.71;100569.53;6184027;22;45161;-84
2023/09/12 00:49:48;;;;;;;;;6.00;6.00;;;;;22.84;61.85;100585.53;6183784;22;45311;-84
2023/09/12 00:52:14;;;;;;;;;7.00;6.00;;;;;22.67;62.34;100575.63;6181810;23;45408;-84
2023/09/12 00:54:40;;;;;;;;;7.00;7.00;;;;;22.78;62.50;100583.41;6183623;22;45543;-83
2023/09/12 00:57:07;;;;;;;;;9.67;9.67;;;;;22.64;62.30;100559.66;6181637;23;45308;-83
2023/09/12 00:59:32;;;;;;;;;7.33;7.00;;;;;22.50;63.07;100557.56;6183672;23;45174;-84
2023/09/12 01:01:59;;;;;;;;;6.33;6.33;;;;;22.27;63.41;100524.81;6184314;22;45126;-84
2023/09/12 01:04:24;;;;;;;;;10.67;8.67;;;;;22.38;63.88;100560.56;6183153;22;46321;-84
2023/09/12 01:06:51;;;;;;;;;9.33;9.33;;;;;22.47;64.27;100585.84;6182015;23;45284;-84
2023/09/12 01:09:16;;;;;;;;;9.33;8.00;;;;;22.46;63.60;100584.16;6183569;23;45321;-85
2023/09/12 01:11:42;;;;;;;;;10.33;8.33;;;;;22.47;63.69;100585.00;6183564;22;45306;-83
2023/09/12 01:14:07;;;;;;;;;13.67;11.33;;;;;22.46;63.89;100586.88;6181016;23;46035;-84
2023/09/12 01:16:32;;;;;;;;;8.00;8.00;;;;;22.52;63.67;100588.06;6184424;23;45241;-84
2023/09/12 01:18:58;;;;;;;;;11.33;9.33;;;;;22.30;63.93;100543.47;6184284;22;45366;-83
2023/09/12 01:21:45;;;;;;;;;13.00;10.33;;;;;22.58;63.66;100576.59;6184669;22;45886;-83
2023/09/12 01:24:29;;;;;;;;;12.00;10.67;;;;;22.57;63.93;100577.59;6183899;23;45264;-84
2023/09/12 01:27:13;;;;;;;;;12.00;12.00;;;;;22.54;64.30;100573.38;6207811;22;45866;-84
2023/09/12 01:29:40;;;;;;;;;11.33;9.00;;;;;22.45;64.72;100554.53;6184349;23;45264;-84
2023/09/12 01:32:06;;;;;;;;;9.00;9.00;;;;;22.46;65.05;100561.63;6184448;22;45241;-84
2023/09/12 01:34:31;;;;;;;;;14.00;11.00;;;;;22.38;64.62;100552.44;6184036;23;46101;-83
2023/09/12 01:36:57;;;;;;;;;13.00;10.67;;;;;22.37;64.19;100552.63;6184920;23;45276;-83
2023/09/12 01:39:22;;;;;;;;;10.33;10.33;;;;;22.40;65.18;100575.81;6184797;23;45262;-84
2023/09/12 01:41:49;;;;;;;;;12.33;9.33;;;;;22.30;65.74;100581.38;6183604;22;45723;-83
2023/09/12 01:44:15;;;;;;;;;10.67;10.67;;;;;22.23;65.90;100578.47;6184089;22;45419;-84
2023/09/12 01:46:42;;;;;;;;;11.67;9.67;;;;;22.16;66.08;100582.84;6183782;22;45283;-84
2023/09/12 01:49:09;;;;;;;;;11.00;10.00;;;;;22.16;66.01;100576.56;6183977;22;45386;-84
2023/09/12 01:51:35;;;;;;;;;10.00;10.00;;;;;22.19;65.71;100576.25;6187001;22;45484;-83
2023/09/12 01:54:03;;;;;;;;;8.00;8.00;;;;;22.17;65.79;100568.28;6183029;23;48203;-84
2023/09/12 01:56:30;;;;;;;;;10.00;10.00;;;;;22.22;66.21;100574.06;6187281;22;45289;-84
2023/09/12 01:58:56;;;;;;;;;11.67;11.67;;;;;22.11;66.23;100568.06;6185340;22;45440;-84
2023/09/12 02:01:21;;;;;;;;;9.00;9.00;;;;;22.11;66.99;100585.16;6184103;22;45206;-83
2023/09/12 02:03:47;;;;;;;;;9.00;9.00;;;;;22.09;66.27;100581.78;6182804;23;46224;-84
2023/09/12 02:06:12;;;;;;;;;11.33;9.00;;;;;22.10;66.51;100588.03;6182121;23;62873;-83
2023/09/12 02:08:37;;;;;;;;;12.67;11.67;;;;;22.09;66.56;100587.19;6182808;23;46642;-83
2023/09/12 02:11:02;;;;;;;;;10.00;9.67;;;;;21.96;66.64;100579.47;6184476;23;45529;-83
2023/09/12 02:13:28;;;;;;;;;10.33;10.33;;;;;21.92;66.60;100571.81;6180699;23;59371;-84
2023/09/12 02:16:03;;;;;;;;;11.00;9.33;;;;;22.03;66.43;100593.22;6182943;23;48418;-84
2023/09/12 02:18:28;;;;;;;;;11.00;9.67;;;;;21.96;66.89;100581.31;6182879;22;45302;-83
2023/09/12 02:20:53;;;;;;;;;12.00;10.00;;;;;21.83;67.01;100567.38;6183580;22;45443;-83
2023/09/12 02:23:19;;;;;;;;;11.00;11.00;;;;;21.96;66.83;100592.16;6182604;22;55146;-84
2023/09/12 02:25:44;;;;;;;;;10.67;9.33;;;;;21.87;67.40;100580.41;6181967;23;71414;-84
2023/09/12 02:28:09;;;;;;;;;14.33;10.67;;;;;21.90;67.54;100587.38;6182740;23;52509;-83
2023/09/12 02:30:40;;;;;;;;;10.67;10.67;;;;;21.87;67.56;100599.34;6184226;23;45273;-84
2023/09/12 02:33:05;;;;;;;;;15.33;12.00;;;;;21.81;68.00;100580.22;6185883;22;45315;-83
2023/09/12 02:35:30;;;;;;;;;14.00;12.67;;;;;21.83;68.18;100586.31;6185918;23;60402;-83
2023/09/12 02:37:56;;;;;;;;;12.33;12.33;;;;;21.85;67.90;100592.41;6185651;23;61259;-84
2023/09/12 02:40:21;;;;;;;;;17.67;14.00;;;;;21.85;68.00;100585.13;6187238;23;45390;-83
2023/09/12 02:42:46;;;;;;;;;15.33;13.33;;;;;21.83;68.17;100589.03;6185035;23;45422;-83
2023/09/12 02:45:12;;;;;;;;;20.00;14.33;;;;;21.75;68.30;100569.03;6183273;22;45271;-84
2023/09/12 02:47:37;;;;;;;;;17.00;15.00;;;;;21.78;68.16;100576.81;6184329;23;45331;-83
2023/09/12 02:50:02;;;;;;;;;16.00;16.00;;;;;21.72;68.29;100563.91;6183725;22;45514;-83
2023/09/12 02:52:28;;;;;;;;;15.33;15.00;;;;;21.80;68.39;100579.38;6180688;23;48061;-83
2023/09/12 02:54:53;;;;;;;;;12.67;10.33;;;;;21.74;68.71;100567.28;6183153;23;45268;-84
2023/09/12 02:57:18;;;;;;;;;16.67;13.67;;;;;21.75;68.75;100577.16;6182046;23;65050;-84
2023/09/12 02:59:44;;;;;;;;;13.67;13.33;;;;;21.71;69.39;100570.31;6181971;23;50998;-83
2023/09/12 03:02:09;;;;;;;;;12.00;11.67;;;;;21.63;69.26;100564.88;6182738;22;46140;-84
2023/09/12 03:04:35;;;;;;;;;13.67;13.67;;;;;21.65;69.26;100572.81;6183073;23;45301;-84
2023/09/12 03:07:00;;;;;;;;;14.33;11.33;;;;;21.60;69.56;100567.03;6182750;22;45393;-84
2023/09/12 03:09:26;;;;;;;;;15.33;11.00;;;;;21.55;69.56;100563.94;6183052;22;45415;-83
2023/09/12 03:11:51;;;;;;;;;16.67;15.00;;;;;21.39;69.82;100540.31;6182034;23;60834;-84
2023/09/12 03:14:16;;;;;;;;;16.67;15.00;;;;;21.55;69.67;100575.63;6182497;23;45274;-82
2023/09/12 03:16:42;;;;;;;;;19.00;17.33;;;;;21.52;69.48;100570.53;6182636;23;45304;-83
2023/09/12 03:19:07;;;;;;;;;16.33;16.33;;;;;21.49;70.18;100570.84;6184229;22;45427;-83
2023/09/12 03:21:32;;;;;;;;;18.67;16.00;;;;;21.53;69.80;100566.81;6186112;22;61333;-82
2023/09/12 03:23:58;;;;;;;;;18.00;16.33;;;;;21.47;70.44;100576.41;6184401;22;45131;-84
2023/09/12 03:26:23;;;;;;;;;18.00;18.00;;;;;21.46;70.36;100584.66;6181901;23;45164;-83
2023/09/12 03:28:50;;;;;;;;;13.67;13.67;;;;;21.38;70.24;100576.50;6185002;23;45359;-83
2023/09/12 03:31:15;;;;;;;;;14.33;12.33;;;;;21.44;70.44;100587.53;6210687;22;47178;-83
2023/09/12 03:33:42;;;;;;;;;16.00;15.00;;;;;21.33;70.28;100562.56;6184120;23;45328;-83
2023/09/12 03:36:08;;;;;;;;;16.33;14.67;;;;;21.28;70.95;100570.31;6183783;22;45426;-83
2023/09/12 03:38:34;;;;;;;;;19.33;19.00;;;;;21.20;70.93;100571.91;6193747;22;45612;-84
2023/09/12 03:41:01;;;;;;;;;15.67;15.67;;;;;21.17;71.13;100558.69;6194358;22;45257;-84
2023/09/12 03:43:26;;;;;;;;;21.33;19.33;;;;;21.42;70.53;100591.41;6184935;22;45098;-83
2023/09/12 03:45:51;;;;;;;;;18.67;15.00;;;;;21.30;70.98;100587.25;6182833;23;45166;-84
2023/09/12 03:48:17;;;;;;;;;25.33;24.33;;;;;21.35;70.80;100584.91;6185084;23;45212;-83
2023/09/12 03:50:42;;;;;;;;;19.67;18.67;;;;;21.33;70.64;100589.63;6183105;23;45573;-84
2023/09/12 03:53:08;;;;;;;;;12.67;12.67;;;;;21.36;70.82;100595.59;6182148;22;45311;-83
2023/09/12 03:55:34;;;;;;;;;21.00;17.33;;;;;21.25;71.03;100586.84;6182248;22;45265;-84
2023/09/12 03:57:59;;;;;;;;;21.00;18.00;;;;;21.19;71.14;100581.03;6180640;23;45269;-83
2023/09/12 04:00:24;;;;;;;;;24.00;21.00;;;;;21.29;70.93;100599.06;6181414;23;47115;-85
2023/09/12 04:02:50;;;;;;;;;21.67;20.33;;;;;21.24;70.63;100599.50;6180463;23;45346;-84
2023/09/12 04:05:15;;;;;;;;;20.67;17.00;;;;;21.21;71.10;100603.34;6180529;23;45348;-83
2023/09/12 04:07:41;;;;;;;;;16.67;16.67;;;;;21.20;70.91;100601.66;6182426;23;45358;-84
2023/09/12 04:10:06;;;;;;;;;21.00;18.00;;;;;21.25;71.27;100614.75;6182323;23;45388;-84
2023/09/12 04:12:31;;;;;;;;;24.33;20.67;;;;;21.16;71.57;100605.69;6181770;23;45360;-84
2023/09/12 04:14:57;;;;;;;;;20.00;18.00;;;;;21.15;71.34;100608.53;6181671;22;45374;-83
2023/09/12 04:17:22;;;;;;;;;20.33;18.67;;;;;21.16;71.29;100605.69;6182568;22;45539;-82
2023/09/12 04:19:47;;;;;;;;;15.33;15.33;;;;;21.16;71.79;100600.28;6181094;23;69179;-84
2023/09/12 04:22:13;;;;;;;;;21.67;18.67;;;;;21.19;71.53;100602.66;6182709;23;45264;-83
2023/09/12 04:24:38;;;;;;;;;19.33;18.00;;;;;21.12;71.66;100588.06;6204933;22;52115;-84
2023/09/12 04:27:04;;;;;;;;;18.33;18.33;;;;;21.19;71.34;100599.94;6182481;23;45444;-84
2023/09/12 04:29:33;;;;;;;;;20.67;17.00;;;;;21.21;71.42;100613.31;6181689;22;45327;-83
2023/09/12 04:31:59;;;;;;;;;22.67;18.33;;;;;21.08;71.47;100607.44;6181837;22;45280;-83
2023/09/12 04:34:25;;;;;;;;;18.00;17.67;;;;;21.18;71.46;100614.47;6181851;23;45328;-84
2023/09/12 04:36:51;;;;;;;;;18.67;18.33;;;;;21.21;71.45;100608.75;6182336;22;45363;-84
2023/09/12 04:39:16;;;;;;;;;20.33;19.33;;;;;21.15;71.33;100603.97;6181687;22;45274;-83
2023/09/12 04:41:41;;;;;;;;;20.67;19.00;;;;;21.24;71.63;100623.00;6134721;23;1114728;-84
2023/09/12 04:44:07;;;;;;;;;20.00;19.33;;;;;21.14;71.22;100613.09;6183562;23;45365;-82
2023/09/12 04:46:32;;;;;;;;;21.67;19.67;;;;;21.19;71.40;100615.34;6184215;23;45507;-82
2023/09/12 04:48:57;;;;;;;;;30.33;21.67;;;;;21.26;71.35;100621.03;6182682;23;64632;-83
2023/09/12 04:51:23;;;;;;;;;20.33;20.33;;;;;21.31;71.02;100624.09;6183696;22;45276;-84
2023/09/12 04:53:51;;;;;;;;;24.67;21.33;;;;;20.95;70.54;100564.56;6183693;23;45579;-82
2023/09/12 04:56:17;;;;;;;;;22.33;22.33;;;;;21.15;71.18;100603.97;6184035;23;45599;-83
2023/09/12 04:58:42;;;;;;;;;20.33;18.67;;;;;21.11;70.80;100608.00;6206850;22;47542;-84
2023/09/12 05:01:09;;;;;;;;;20.67;20.67;;;;;21.27;70.85;100634.38;6183431;22;45280;-84
2023/09/12 05:03:34;;;;;;;;;24.67;20.67;;;;;21.19;70.83;100610.78;6183449;22;45292;-82
2023/09/12 05:05:59;;;;;;;;;22.00;21.00;;;;;21.31;70.83;100618.69;6183854;23;45603;-83
2023/09/12 05:08:25;;;;;;;;;19.00;18.33;;;;;21.30;70.74;100625.13;6207364;22;46828;-83
2023/09/12 05:10:50;;;;;;;;;19.00;19.00;;;;;21.27;70.53;100617.31;6182820;22;45426;-83
2023/09/12 05:13:15;;;;;;;;;22.33;20.67;;;;;21.23;70.90;100618.59;6184745;22;45376;-84
2023/09/12 05:15:41;;;;;;;;;21.00;20.00;;;;;21.21;70.83;100618.72;6183958;23;45351;-81
2023/09/12 05:18:07;;;;;;;;;25.67;22.00;;;;;21.15;70.88;100612.09;6183531;22;45432;-83
2023/09/12 05:20:35;;;;;;;;;19.00;19.00;;;;;21.19;70.94;100618.88;6182990;23;45320;-84
2023/09/12 05:23:00;;;;;;;;;24.67;21.67;;;;;21.11;71.11;100624.22;6184363;23;45272;-82
2023/09/12 05:25:29;;;;;;;;;22.67;21.33;;;;;20.96;71.59;100614.91;6184515;23;45189;-81
2023/09/12 05:27:55;;;;;;;;;22.00;21.00;;;;;21.03;71.53;100637.66;6183608;22;45433;-82
2023/09/12 05:30:20;;;;;;;;;21.33;20.00;;;;;20.88;72.09;100644.59;6183391;22;45367;-82
2023/09/12 05:32:46;;;;;;;;;27.33;22.00;;;;;20.89;72.15;100647.13;6183727;23;45254;-83
2023/09/12 05:35:11;;;;;;;;;26.33;21.33;;;;;20.84;72.24;100649.44;6184823;23;45201;-81
2023/09/12 05:37:36;;;;;;;;;28.00;24.00;;;;;20.82;72.09;100637.06;6183324;22;45327;-82
2023/09/12 05:40:03;;;;;;;;;23.33;21.00;;;;;20.69;72.23;100617.66;6182248;23;45369;-83
2023/09/12 05:42:28;;;;;;;;;26.67;25.00;;;;;20.92;71.76;100646.81;6182050;23;45333;-83
2023/09/12 05:44:53;;;;;;;;;26.67;21.67;;;;;20.84;71.95;100632.38;6183988;22;45332;-83
2023/09/12 05:47:19;;;;;;;;;37.00;30.33;;;;;20.92;71.67;100641.41;6184904;23;50606;-86
2023/09/12 05:49:45;;;;;;;;;27.00;27.00;;;;;20.97;71.19;100643.69;6191282;23;45386;-87
2023/09/12 05:52:11;;;;;;;;;25.00;22.33;;;;;20.99;71.39;100640.81;6200225;23;45115;-89
2023/09/12 05:54:36;;;;;;;;;28.33;27.67;;;;;21.05;71.36;100641.06;6160620;23;45465;-88
2023/09/12 05:57:02;;;;;;;;;30.33;28.67;;;;;21.08;71.22;100640.75;6184227;23;46437;-89
2023/09/12 05:59:28;;;;;;;;;32.00;28.00;;;;;21.06;71.37;100642.75;6186129;22;45199;-86
2023/09/12 06:01:53;;;;;;;;;28.33;25.00;;;;;21.03;71.21;100620.56;6188042;22;45099;-92
2023/09/12 06:04:19;;;;;;;;;32.33;28.00;;;;;21.13;70.77;100643.84;6187488;22;45540;-87
2023/09/12 06:06:46;;;;;;;;;32.33;27.00;;;;;21.16;70.51;100634.59;6183910;23;45218;-82
2023/09/12 06:09:11;;;;;;;;;22.67;22.67;;;;;21.14;70.10;100623.06;6180993;23;45331;-85
2023/09/12 06:11:36;;;;;;;;;30.00;30.00;;;;;21.30;70.03;100654.88;6182943;22;45309;-82
2023/09/12 06:14:02;;;;;;;;;29.67;24.67;;;;;21.34;70.25;100653.53;6181965;23;55826;-83
2023/09/12 06:16:27;;;;;;;;;34.67;32.00;;;;;21.33;70.12;100644.59;6182330;23;65490;-84
2023/09/12 06:18:53;;;;;;;;;29.00;25.33;;;;;21.41;69.92;100662.75;6183062;23;45201;-84
2023/09/12 06:21:20;;;;;;;;;24.67;23.00;;;;;21.18;70.55;100649.63;6183832;23;45323;-84
2023/09/12 06:23:46;;;;;;;;;23.33;21.67;;;;;21.23;70.96;100664.59;6182994;22;45301;-83
2023/09/12 06:26:11;;;;;;;;;21.67;20.00;;;;;20.99;71.12;100635.41;6183136;22;46145;-82
2023/09/12 06:28:37;;;;;;;;;23.33;20.33;;;;;21.04;71.26;100650.16;6182978;23;45337;-84
2023/09/12 06:31:02;;;;;;;;;32.00;26.00;;;;;20.97;71.49;100653.66;6182356;23;62308;-84
2023/09/12 06:33:28;;;;;;;;;24.67;21.67;;;;;21.02;71.33;100654.88;6183584;23;53434;-84
2023/09/12 06:35:54;;;;;;;;;25.67;21.67;;;;;21.07;70.95;100660.66;6183676;23;45215;-84
2023/09/12 06:38:20;;;;;;;;;18.00;17.67;;;;;20.87;71.05;100632.06;6184033;22;45179;-84
2023/09/12 06:40:47;;;;;;;;;25.33;22.67;;;;;21.17;70.75;100666.88;6183257;22;45426;-84
2023/09/12 06:43:13;;;;;;;;;27.67;26.00;;;;;21.16;71.16;100643.53;6206930;22;45290;-83
2023/09/12 06:45:40;;;;;;;;;24.33;21.67;;;;;21.13;70.58;100619.50;6183456;23;45452;-84
2023/09/12 06:48:05;;;;;;;;;19.00;19.00;;;;;21.39;69.95;100643.13;6183252;23;45369;-84
2023/09/12 06:50:30;;;;;;;;;23.00;20.00;;;;;21.39;69.90;100656.66;6183124;22;45233;-84
2023/09/12 06:52:56;;;;;;;;;24.67;23.33;;;;;21.21;70.18;100624.13;6182902;23;57017;-84
2023/09/12 06:55:21;;;;;;;;;23.33;22.33;;;;;21.41;70.34;100655.50;6183950;22;45202;-82
2023/09/12 06:57:47;;;;;;;;;21.00;20.00;;;;;21.16;69.69;100611.09;6183585;22;45202;-83
2023/09/12 07:00:13;;;;;;;;;20.67;19.00;;;;;21.46;69.92;100665.84;6183257;22;45170;-82
2023/09/12 07:02:38;;;;;;;;;20.33;19.33;;;;;21.42;69.83;100664.47;6183485;22;45302;-83
2023/09/12 07:05:04;;;;;;;;;20.33;16.00;;;;;21.49;69.60;100662.84;6181195;23;50918;-83
2023/09/12 07:07:30;;;;;;;;;21.33;20.33;;;;;21.65;69.24;100662.16;6182958;22;45210;-82
2023/09/12 07:09:56;;;;;;;;;25.33;22.67;;;;;21.75;68.72;100654.78;6183068;22;45338;-84
2023/09/12 07:12:21;;;;;;;;;29.00;21.33;;;;;21.56;68.75;100631.44;6184485;23;45438;-83
2023/09/12 07:14:46;;;;;;;;;22.67;21.33;;;;;21.81;68.36;100664.97;6185728;23;45280;-84
2023/09/12 07:17:12;;;;;;;;;19.33;19.00;;;;;21.62;68.49;100648.94;6188064;22;45256;-83
2023/09/12 07:19:37;;;;;;;;;21.00;20.67;;;;;21.74;68.64;100670.16;6189302;23;45857;-83
2023/09/12 07:22:03;;;;;;;;;24.00;17.33;;;;;21.70;68.66;100673.34;6187589;23;45205;-84
2023/09/12 07:24:28;;;;;;;;;35.67;32.33;;;;;21.66;68.99;100678.22;6191288;23;45282;-82
2023/09/12 07:26:53;;;;;;;;;22.00;19.33;;;;;21.58;69.26;100680.84;6195451;22;45283;-82
2023/09/12 07:29:19;;;;;;;;;21.33;20.00;;;;;21.47;69.35;100679.22;6195642;23;53701;-84
2023/09/12 07:31:44;;;;;;;;;14.00;14.00;;;;;21.38;69.16;100677.47;6197905;23;45430;-84
2023/09/12 07:34:11;;;;;;;;;17.67;14.33;;;;;21.32;69.66;100672.63;6198451;23;55542;-83
2023/09/12 07:36:37;;;;;;;;;17.00;17.00;;;;;21.33;69.46;100665.38;6200600;22;45319;-83
2023/09/12 07:39:03;;;;;;;;;18.00;16.67;;;;;21.39;68.97;100664.78;6195359;23;44600;-83
2023/09/12 07:41:29;;;;;;;;;19.33;16.33;;;;;21.35;68.81;100656.09;6193988;23;45351;-83
2023/09/12 07:43:54;;;;;;;;;16.00;13.33;;;;;21.36;68.52;100648.84;6193230;23;45264;-83
2023/09/12 07:46:20;;;;;;;;;18.67;15.00;;;;;21.56;68.31;100677.44;6183352;23;45209;-84
2023/09/12 07:48:45;;;;;;;;;21.00;18.67;;;;;21.54;68.17;100684.88;6184438;22;45416;-84
2023/09/12 07:51:17;;;;;;;;;17.50;14.00;;;;;21.45;68.88;100693.91;6184294;22;45336;-84
2023/09/12 07:53:42;;;;;;;;;19.67;18.00;;;;;21.39;68.46;100665.63;6183573;22;45974;-84
2023/09/12 07:56:10;;;;;;;;;23.00;18.33;;;;;21.63;68.26;100686.66;6182207;23;45444;-84
2023/09/12 07:58:35;;;;;;;;;16.00;15.00;;;;;21.58;68.16;100659.19;6183985;23;45201;-84
2023/09/12 08:01:08;;;;;;;;;16.00;14.67;;;;;21.76;67.88;100684.41;6181145;23;45629;-84
2023/09/12 08:03:38;;;;;;;;;17.00;16.00;;;;;21.74;67.37;100663.91;6183888;22;45333;-83
2023/09/12 08:06:04;;;;;;;;;19.67;16.67;;;;;21.84;67.37;100685.47;6183296;23;45273;-84
2023/09/12 08:08:30;;;;;;;;;16.33;13.67;;;;;21.76;67.10;100651.94;6183904;22;45268;-83
2023/09/12 08:10:56;;;;;;;;;19.67;17.67;;;;;21.86;67.35;100688.88;6184698;22;45383;-83
2023/09/12 08:13:22;;;;;;;;;14.67;14.67;;;;;21.81;66.88;100683.09;6183967;22;45881;-83
2023/09/12 08:15:47;;;;;;;;;16.33;12.00;;;;;21.76;67.71;100687.13;6183344;22;45133;-81
2023/09/12 08:18:12;;;;;;;;;16.33;14.00;;;;;21.76;67.66;100679.00;6183823;23;45118;-83
2023/09/12 08:20:38;;;;;;;;;14.67;14.00;;;;;21.72;66.99;100661.34;6183548;23;45518;-84
2023/09/12 08:23:03;;;;;;;;;16.33;16.33;;;;;21.84;66.90;100696.31;6181493;22;46781;-84
2023/09/12 08:25:29;;;;;;;;;13.33;11.33;;;;;21.67;67.45;100674.50;6183969;23;45483;-83
2023/09/12 08:27:54;;;;;;;;;15.33;13.67;;;;;21.75;67.62;100693.53;6184369;23;45284;-82
2023/09/12 08:30:20;;;;;;;;;17.67;16.33;;;;;21.80;67.60;100709.31;6184064;23;45819;-83
2023/09/12 08:32:45;;;;;;;;;18.00;15.67;;;;;21.70;67.71;100687.72;6185598;23;46122;-85
2023/09/12 08:35:12;;;;;;;;;18.33;16.33;;;;;21.86;67.56;100700.53;6184342;22;45114;-84
2023/09/12 08:37:39;;;;;;;;;18.00;18.00;;;;;21.78;67.03;100679.69;6183511;22;45350;-83
2023/09/12 08:40:07;;;;;;;;;23.00;19.00;;;;;21.88;67.30;100692.31;6183939;22;45273;-83
2023/09/12 08:42:36;;;;;;;;;20.00;16.00;;;;;21.92;66.53;100677.44;6182658;22;46517;-84
2023/09/12 08:45:04;;;;;;;;;15.67;15.00;;;;;22.05;66.75;100694.13;6182929;22;45346;-83
2023/09/12 08:47:31;;;;;;;;;15.33;15.33;;;;;21.97;66.26;100677.78;6181677;23;45334;-83
2023/09/12 08:49:57;;;;;;;;;15.67;13.00;;;;;22.16;66.05;100695.75;6184213;22;45102;-83
2023/09/12 08:52:22;;;;;;;;;15.00;15.00;;;;;22.33;65.76;100698.41;6183515;22;46385;-83
2023/09/12 08:54:48;;;;;;;;;19.00;16.33;;;;;22.32;65.62;100685.88;6183589;23;54276;-84
2023/09/12 08:57:13;;;;;;;;;17.00;16.00;;;;;22.31;65.41;100692.31;6183978;22;45292;-83
2023/09/12 08:59:41;;;;;;;;;14.33;14.33;;;;;22.18;65.48;100678.34;6184003;23;45539;-83
2023/09/12 09:02:09;;;;;;;;;14.00;13.00;;;;;22.12;65.74;100673.53;6184054;22;45273;-83
2023/09/12 09:04:36;;;;;;;;;16.00;14.33;;;;;22.19;66.04;100692.72;6184432;22;45422;-83
2023/09/12 09:07:03;;;;;;;;;20.00;18.67;;;;;22.11;65.86;100688.09;6187974;23;45170;-83
2023/09/12 09:09:29;;;;;;;;;13.33;13.33;;;;;22.00;66.46;100680.19;6189756;22;45106;-83
2023/09/12 09:11:55;;;;;;;;;16.33;15.33;;;;;21.67;66.29;100642.03;6190474;23;45999;-82
2023/09/12 09:14:20;;;;;;;;;16.67;16.67;;;;;21.88;66.51;100686.88;6188045;22;45198;-84
2023/09/12 09:16:45;;;;;;;;;22.00;19.00;;;;;22.03;66.30;100704.25;6184627;23;45182;-84
2023/09/12 09:19:11;;;;;;;;;18.00;16.00;;;;;22.02;66.26;100705.28;6184272;22;45221;-83
2023/09/12 09:21:40;;;;;;;;;16.00;14.33;;;;;22.01;66.27;100698.16;6183315;23;45218;-83
2023/09/12 09:24:10;;;;;;;;;16.33;14.67;;;;;21.99;66.54;100705.56;6182951;22;45360;-85
2023/09/12 09:26:45;;;;;;;;;13.33;13.33;;;;;21.93;66.56;100708.91;6183414;22;45230;-83
2023/09/12 09:29:15;;;;;;;;;11.00;10.67;;;;;21.86;67.03;100699.69;6183367;22;45458;-83
2023/09/12 09:31:41;;;;;;;;;14.67;14.00;;;;;21.77;66.90;100678.00;6182345;22;45347;-84
2023/09/12 09:34:21;;;;;;;;;9.00;7.67;;;;;21.78;66.85;100687.81;6183060;23;45365;-83
2023/09/12 09:36:47;;;;;;;;;14.33;14.33;;;;;21.82;67.27;100701.03;6182415;23;45424;-83
2023/09/12 09:39:13;;;;;;;;;15.00;15.00;;;;;21.67;66.87;100657.41;6183241;22;45459;-83
2023/09/12 09:41:39;;;;;;;;;15.67;13.67;;;;;21.90;68.24;100690.28;6182062;23;45850;-84
2023/09/12 09:44:09;;;;;;;;;18.67;17.67;;;;;21.84;70.19;100682.75;6180381;23;45319;-82
2023/09/12 09:46:38;;;;;;;;;17.00;17.00;;;;;21.71;69.72;100681.31;6183267;22;45363;-82
2023/09/12 09:49:03;;;;;;;;;17.33;16.67;;;;;21.67;70.85;100685.34;6183621;22;45316;-83
2023/09/12 09:51:31;;;;;;;;;23.67;21.00;;;;;21.70;73.14;100708.53;6182658;22;45252;-84
2023/09/12 09:53:58;;;;;;;;;15.00;15.00;;;;;21.63;71.92;100711.03;6183236;22;45220;-84
2023/09/12 09:56:24;;;;;;;;;15.33;14.33;;;;;21.49;70.46;100704.28;6184002;23;45320;-84
2023/09/12 09:58:55;;;;;;;;;14.67;13.67;;;;;21.53;71.73;100720.22;6185431;23;45094;-84
2023/09/12 10:01:28;;;;;;;;;15.33;13.67;;;;;21.48;72.14;100739.59;6183207;22;45401;-84
2023/09/12 10:03:58;;;;;;;;;13.67;13.00;;;;;21.35;74.13;100739.09;6183840;23;45271;-84
2023/09/12 10:06:24;;;;;;;;;18.00;17.00;;;;;21.40;74.75;100758.47;6184020;22;45157;-82
2023/09/12 10:08:54;;;;;;;;;23.67;17.33;;;;;21.33;75.88;100757.34;6184020;22;45297;-82
2023/09/12 10:11:23;;;;;;;;;19.33;18.67;;;;;21.19;78.15;100762.22;6182535;23;47097;-83
2023/09/12 10:13:57;;;;;;;;;19.33;15.67;;;;;21.09;79.38;100772.25;6182459;22;45102;-84
2023/09/12 10:16:31;;;;;;;;;27.67;24.00;;;;;20.73;80.06;100736.13;6183234;22;45167;-84
2023/09/12 10:19:10;;;;;;;;;23.67;21.33;;;;;20.73;80.98;100771.25;6185338;22;45534;-84
2023/09/12 10:21:37;;;;;;;;;43.33;37.00;;;;;20.66;82.29;100790.91;6181284;23;46268;-85
2023/09/12 10:24:08;;;;;;;;;35.33;28.67;;;;;20.34;82.25;100740.75;6181376;23;45355;-84
2023/09/12 10:26:34;;;;;;;;;20.00;18.00;;;;;20.26;82.37;100743.31;6183127;22;45266;-82
2023/09/12 10:29:02;;;;;;;;;30.67;29.67;;;;;20.22;84.68;100760.81;6182708;22;45163;-84
2023/09/12 10:31:28;;;;;;;;;20.67;18.67;;;;;20.37;83.54;100775.56;6184283;23;45334;-84
2023/09/12 10:33:54;;;;;;;;;23.00;19.67;;;;;20.39;83.37;100772.72;6184164;22;45197;-83
2023/09/12 10:36:20;;;;;;;;;26.00;25.33;;;;;20.46;82.63;100780.16;6180964;23;45325;-83
2023/09/12 10:38:48;;;;;;;;;27.33;26.33;;;;;20.22;84.03;100750.00;6183372;22;45222;-83
2023/09/12 10:41:14;;;;;;;;;20.67;18.33;;;;;20.36;82.85;100767.63;6181985;22;45316;-83
2023/09/12 10:43:41;;;;;;;;;30.33;24.33;;;;;20.37;83.59;100764.78;6182841;22;45253;-84
2023/09/12 10:46:08;;;;;;;;;21.33;15.67;;;;;20.25;83.99;100739.75;6207336;22;45419;-84
2023/09/12 10:48:39;;;;;;;;;13.67;13.33;;;;;20.22;82.80;100739.22;6183941;22;45339;-84
2023/09/12 10:51:07;;;;;;;;;22.67;20.67;;;;;20.40;83.93;100769.88;6183715;22;46033;-83
2023/09/12 10:53:33;;;;;;;;;17.67;16.67;;;;;20.35;85.16;100760.50;6182585;22;45325;-84
2023/09/12 10:56:19;;;;;;;;;32.67;23.33;;;;;20.33;86.02;100755.25;6183332;22;45374;-84
2023/09/12 10:59:12;;;;;;;;;21.00;17.33;;;;;20.31;85.54;100749.13;6183613;23;45323;-84
2023/09/12 11:01:48;;;;;;;;;16.00;16.00;;;;;20.33;85.78;100733.66;6183843;23;45572;-84
2023/09/12 11:04:19;;;;;;;;;23.67;19.00;;;;;20.46;85.38;100754.97;6183101;22;45305;-83
2023/09/12 11:06:47;;;;;;;;;10.00;7.00;;;;;20.40;86.11;100759.06;6183742;23;45359;-84
2023/09/12 11:09:22;;;;;;;;;13.33;12.00;;;;;20.35;85.77;100752.41;6184367;22;45415;-83